Dunkirk, New York
Current Conditions -  °F | °C
As of 11:15 AM on Sunday 23 Nov 2014 (Local Time) from KDKK Reporting Station
Overcast Overcast  
Wind Chill: 39°   Ceiling: 2500
Heat Index: 45°   Visibility: 10mi
Dew Point: 38°   Wind: 14mph
Humidity: 76%   Direction: 190°S
Pressure: 30.06"   Gusts: 23mph
Location:  42.49°N, 79.34°W
Report Text: KDKK 231615Z AUTO 19012G20KT 10SM BKN025 OVC036 07/03 A3006 RMK AO2 RAE14 P0000 T00720033
Loading
Personal Weather Stations






























Interactive Weather Map New forecast layout! Learn more

10-Day Weather Forecast

Advertisements
Track Severe Weather on mobile